This is the latest recevied weather packets stored in our database for station/object VE2XOX. If no packets are shown the sender has not sent any weather packets the latest 10 day(s).
| Time | Temp. | Humidity | Pressure | Rain* | Wind** | Luminosity | Snow |
|---|---|---|---|---|---|---|---|
| 1778012114 | 20° C | 71% | 996.4 hPa | 0 mm | - | - | - |
| 1778011824 | 19.44° C | 74% | 996.5 hPa | 0 mm | - | - | - |
| 1778011212 | 19.44° C | 77% | 996.5 hPa | 0 mm | - | - | - |
| 1778010924 | 18.89° C | 78% | 996.7 hPa | 0 mm | - | - | - |
| 1778009713 | 18.89° C | 79% | 997.1 hPa | 0 mm | - | - | - |
| 1778009418 | 18.89° C | 80% | 997.1 hPa | 0 mm | - | - | - |
| 1778009128 | 18.33° C | 81% | 997.3 hPa | 0 mm | - | - | - |
| 1778008814 | 18.33° C | 82% | 997.4 hPa | 0 mm | - | - | - |
| 1778008515 | 17.78° C | 82% | 997.4 hPa | 0 mm | - | - | - |
| 1778008228 | 17.78° C | 83% | 997.7 hPa | 0 mm | - | - | - |
| 1778006423 | 16.11° C | 89% | 997.9 hPa | 3.05 mm | - | - | - |
| 1778006127 | 15.56° C | 89% | 997.9 hPa | 6.1 mm | - | - | - |
| 1778005813 | 15.56° C | 89% | 998.1 hPa | 7.87 mm | - | - | - |
| 1778004332 | 14.44° C | 90% | 998.3 hPa | 11.94 mm | - | - | - |
| 1778002828 | 14.44° C | 89% | 998.7 hPa | 16 mm | - | - | - |
| 1778002514 | 14.44° C | 89% | 998.8 hPa | 14.99 mm | - | - | - |
| 1778002219 | 14.44° C | 89% | 998.6 hPa | 19.05 mm | - | - | - |
| 1778001932 | 14.44° C | 89% | 998.6 hPa | 17.02 mm | - | - | - |
| 1778001618 | 14.44° C | 89% | 998.4 hPa | 17.02 mm | - | - | - |
| 1778001324 | 14.44° C | 88% | 998.6 hPa | 17.02 mm | - | - | - |
| 1778001035 | 15° C | 88% | 998.6 hPa | 16 mm | - | - | - |
| 1777999228 | 16.11° C | 82% | 999 hPa | 7.87 mm | - | - | - |
| 1777998914 | 16.11° C | 79% | 998.9 hPa | 4.06 mm | - | - | - |
| 1777998619 | 16.67° C | 76% | 998.8 hPa | 0 mm | - | - | - |
| 1777998330 | 17.22° C | 74% | 998.8 hPa | 0 mm | - | - | - |
* Rain latest hour (hover to see other rain measurements)
** Current wind speed in m/s (hover to see current wind gust speed)